createdAt,value
2023-09-23T00:00:39.374Z,96811.69
2023-09-23T00:04:42.118Z,96825.81
2023-09-23T00:08:46.048Z,96825.22
2023-09-23T00:12:50.824Z,96825.22
2023-09-23T00:16:53.581Z,96831.72
2023-09-23T00:20:57.485Z,96826.97
2023-09-23T00:25:00.991Z,96827.19
2023-09-23T00:29:05.843Z,96836.16
2023-09-23T00:33:09.085Z,96840.50
2023-09-23T00:37:11.879Z,96844.97
2023-09-23T00:41:14.633Z,96848.97
2023-09-23T00:45:20.294Z,96858.84
2023-09-23T00:49:26.090Z,96872.38
2023-09-23T00:53:30.233Z,96862.38
2023-09-23T00:57:35.066Z,96865.31
2023-09-23T01:01:40.528Z,96854.72
2023-09-23T01:05:45.105Z,96864.75
2023-09-23T01:09:48.016Z,96859.91
2023-09-23T01:13:53.148Z,96872.94
2023-09-23T01:17:58.258Z,96879.66
2023-09-23T01:22:00.941Z,96894.00
2023-09-23T01:26:05.703Z,96896.31
2023-09-23T01:30:09.526Z,96896.31
2023-09-23T01:34:12.382Z,96892.34
2023-09-23T01:38:16.860Z,96893.53
2023-09-23T01:42:21.034Z,96912.72
2023-09-23T01:46:23.698Z,96923.31
2023-09-23T01:50:26.493Z,96907.53
2023-09-23T01:54:29.199Z,96920.69
2023-09-23T01:58:33.206Z,96929.28
2023-09-23T02:02:36.013Z,96950.91
2023-09-23T02:06:41.512Z,96953.75
2023-09-23T02:10:46.164Z,96938.94
2023-09-23T02:14:50.173Z,96941.66
2023-09-23T02:18:52.832Z,96960.59
2023-09-23T02:22:56.152Z,96954.00
2023-09-23T02:26:58.909Z,96961.50
2023-09-23T02:31:03.243Z,96967.75
2023-09-23T02:35:07.369Z,96955.63
2023-09-23T02:39:16.483Z,96952.09
2023-09-23T02:43:20.490Z,96972.69
2023-09-23T02:47:24.688Z,96972.47
2023-09-23T02:51:27.481Z,96981.41
2023-09-23T02:55:30.390Z,96997.03
2023-09-23T02:59:34.091Z,97001.03
2023-09-23T03:03:41.552Z,96996.69
2023-09-23T03:07:44.715Z,96992.31
2023-09-23T03:11:50.493Z,97000.00
2023-09-23T03:15:54.472Z,97001.72
2023-09-23T03:20:01.282Z,96991.94
2023-09-23T03:24:04.019Z,96999.25
2023-09-23T03:28:08.318Z,97010.28
2023-09-23T03:32:11.079Z,97004.44
2023-09-23T03:36:18.651Z,97011.47
2023-09-23T03:40:25.655Z,97020.41
2023-09-23T03:44:28.381Z,97024.78
2023-09-23T03:48:31.036Z,97023.75
2023-09-23T03:52:35.185Z,97024.34
2023-09-23T03:56:37.822Z,97034.75
2023-09-23T04:00:40.762Z,97031.28
2023-09-23T04:04:43.997Z,97046.69
2023-09-23T04:08:48.899Z,97047.59
2023-09-23T04:12:52.451Z,97065.50
2023-09-23T04:16:55.334Z,97075.50
2023-09-23T04:20:58.058Z,97069.31
2023-09-23T04:25:02.993Z,97075.31
2023-09-23T04:29:05.725Z,97082.41
2023-09-23T04:33:08.702Z,97095.25
2023-09-23T04:37:11.420Z,97091.69
2023-09-23T04:41:15.469Z,97087.03
2023-09-23T04:45:18.978Z,97096.69
2023-09-23T04:49:22.646Z,97103.94
2023-09-23T04:53:25.790Z,97115.84
2023-09-23T04:57:30.290Z,97114.97
2023-09-23T05:01:32.985Z,97121.22
2023-09-23T05:05:35.955Z,97129.53
2023-09-23T05:09:40.088Z,97143.19
2023-09-23T05:13:44.128Z,97152.41
2023-09-23T05:17:46.845Z,97158.75
2023-09-23T05:21:51.207Z,97165.09
2023-09-23T05:25:58.882Z,97164.31
2023-09-23T05:30:08.485Z,97156.66
2023-09-23T05:34:11.928Z,97168.75
2023-09-23T05:38:14.642Z,97169.66
2023-09-23T05:42:19.530Z,97174.09
2023-09-23T05:46:23.587Z,97178.88
2023-09-23T05:50:26.322Z,97184.75
2023-09-23T05:54:29.121Z,97202.63
2023-09-23T05:58:31.789Z,97209.50
2023-09-23T06:02:35.828Z,97211.41
2023-09-23T06:06:39.536Z,97215.53
2023-09-23T06:10:42.219Z,97220.94
2023-09-23T06:14:44.871Z,97238.88
2023-09-23T06:18:49.137Z,97245.53
2023-09-23T06:22:51.851Z,97248.88
2023-09-23T06:26:55.167Z,97247.84
2023-09-23T06:30:57.870Z,97243.47
2023-09-23T06:35:02.098Z,97247.84
2023-09-23T06:39:05.120Z,97260.28
2023-09-23T06:43:08.267Z,97259.66
2023-09-23T06:47:11.086Z,97269.41
2023-09-23T06:51:15.147Z,97272.78
2023-09-23T06:55:18.925Z,97269.88
2023-09-23T06:59:21.636Z,97270.91
2023-09-23T07:03:24.559Z,97281.72
2023-09-23T07:07:28.752Z,97274.47
2023-09-23T07:11:31.451Z,97285.56
2023-09-23T07:15:37.167Z,97295.16
2023-09-23T07:19:39.834Z,97292.84
2023-09-23T07:23:43.845Z,97298.88
2023-09-23T07:27:46.472Z,97305.19
2023-09-23T07:31:49.275Z,97306.06
2023-09-23T07:35:52.022Z,97310.88
2023-09-23T07:39:56.119Z,97310.06
2023-09-23T07:43:59.238Z,97328.22
2023-09-23T07:48:02.078Z,97346.72
2023-09-23T07:52:05.743Z,97341.22
2023-09-23T07:56:10.875Z,97352.56
2023-09-23T08:00:14.333Z,97362.78
2023-09-23T08:04:17.032Z,97369.09
2023-09-23T08:08:19.784Z,97379.50
2023-09-23T08:12:23.826Z,97384.34
2023-09-23T08:16:26.529Z,97394.34
2023-09-23T08:20:29.349Z,97401.81
2023-09-23T08:24:32.071Z,97411.19
2023-09-23T08:28:36.232Z,97413.31
2023-09-23T08:32:39.078Z,97409.50
2023-09-23T08:36:41.788Z,97424.19
2023-09-23T08:40:46.505Z,97423.25
2023-09-23T08:44:51.620Z,97425.00
2023-09-23T08:48:54.781Z,97428.81
2023-09-23T08:53:00.262Z,97428.44
2023-09-23T08:57:03.169Z,97441.97
2023-09-23T09:01:08.392Z,97443.41
2023-09-23T09:05:11.423Z,97439.28
2023-09-23T09:09:14.169Z,97436.00
2023-09-23T09:13:18.586Z,97440.59
2023-09-23T09:17:22.904Z,97437.78
2023-09-23T09:21:27.748Z,97425.59
2023-09-23T09:25:32.579Z,97426.41
2023-09-23T09:29:35.499Z,97424.06
2023-09-23T09:33:40.792Z,97428.81
2023-09-23T09:37:45.787Z,97430.81
2023-09-23T09:41:54.269Z,97434.34
2023-09-23T09:46:00.238Z,97423.00
2023-09-23T09:50:05.892Z,97432.34
2023-09-23T09:54:10.648Z,97428.06
2023-09-23T09:58:13.980Z,97430.97
2023-09-23T10:02:17.212Z,97429.22
2023-09-23T10:06:23.236Z,97438.63
2023-09-23T10:10:37.239Z,97427.38
2023-09-23T10:14:39.936Z,97415.50
2023-09-23T10:18:42.908Z,97414.47
2023-09-23T10:22:54.700Z,97422.88
2023-09-23T10:27:05.896Z,97413.25
2023-09-23T10:31:09.829Z,97428.59
2023-09-23T10:35:12.531Z,97421.13
2023-09-23T10:39:19.331Z,97424.47
2023-09-23T10:43:22.776Z,97430.81
2023-09-23T10:47:26.572Z,97425.84
2023-09-23T10:51:29.631Z,97436.44
2023-09-23T10:55:35.835Z,97426.38
2023-09-23T10:59:39.655Z,97433.25
2023-09-23T11:03:42.617Z,97439.34
2023-09-23T11:07:46.539Z,97448.38
2023-09-23T11:11:50.553Z,97450.34
2023-09-23T11:15:53.503Z,97457.69
2023-09-23T11:19:57.086Z,97451.75
2023-09-23T11:24:00.070Z,97449.25
2023-09-23T11:28:04.407Z,97443.16
2023-09-23T11:32:08.490Z,97447.38
2023-09-23T11:36:11.234Z,97451.28
2023-09-23T11:40:15.753Z,97456.09
2023-09-23T11:44:19.749Z,97459.97
2023-09-23T11:48:22.427Z,97448.19
2023-09-23T11:52:26.222Z,97448.19
2023-09-23T11:56:28.894Z,97440.66
2023-09-23T12:00:35.346Z,97445.47
2023-09-23T12:04:38.378Z,97441.88
2023-09-23T12:08:41.960Z,97435.50
2023-09-23T12:12:44.932Z,97445.09
2023-09-23T12:16:49.083Z,97443.38
2023-09-23T12:20:52.764Z,97443.78
2023-09-23T12:24:57.556Z,97439.59
2023-09-23T12:29:00.239Z,97446.22
2023-09-23T12:33:04.410Z,97438.69
2023-09-23T12:37:07.142Z,97449.25
2023-09-23T12:41:10.801Z,97455.38
2023-09-23T12:45:14.538Z,97463.00
2023-09-23T12:49:18.579Z,97458.91
2023-09-23T12:53:22.005Z,97459.31
2023-09-23T12:57:24.664Z,97467.44
2023-09-23T13:01:27.463Z,97465.31
2023-09-23T13:05:31.579Z,97458.78
2023-09-23T13:09:34.262Z,97471.84
2023-09-23T13:13:36.911Z,97467.63
2023-09-23T13:17:39.673Z,97474.13
2023-09-23T13:21:43.768Z,97478.09
2023-09-23T13:25:46.555Z,97466.94
2023-09-23T13:29:49.534Z,97473.56
2023-09-23T13:33:52.219Z,97494.75
2023-09-23T13:37:56.275Z,97493.91
2023-09-23T13:41:59.064Z,97489.22
2023-09-23T13:46:01.927Z,97473.94
2023-09-23T13:50:05.347Z,97473.06
2023-09-23T13:54:09.446Z,97465.72
2023-09-23T13:58:12.230Z,97468.19
2023-09-23T14:02:16.976Z,97473.31
2023-09-23T14:06:19.905Z,97487.22
2023-09-23T14:10:24.356Z,97496.44
2023-09-23T14:14:27.073Z,97498.72
2023-09-23T14:18:29.768Z,97480.94
2023-09-23T14:22:32.543Z,97486.97
2023-09-23T14:26:37.541Z,97512.53
2023-09-23T14:30:40.431Z,97515.63
2023-09-23T14:34:43.239Z,97522.31
2023-09-23T14:38:46.322Z,97516.75
2023-09-23T14:42:50.743Z,97509.53
2023-09-23T14:46:53.422Z,97515.81
2023-09-23T14:50:56.092Z,97525.31
2023-09-23T14:54:58.782Z,97531.81
2023-09-23T14:59:02.849Z,97529.75
2023-09-23T15:03:06.470Z,97537.59
2023-09-23T15:07:09.333Z,97535.50
2023-09-23T15:11:12.035Z,97538.84
2023-09-23T15:15:16.792Z,97543.75
2023-09-23T15:19:20.449Z,97549.75
2023-09-23T15:23:23.155Z,97569.91
2023-09-23T15:27:25.859Z,97569.91
2023-09-23T15:31:29.972Z,97572.00
2023-09-23T15:35:32.763Z,97580.78
2023-09-23T15:39:35.460Z,97585.75
2023-09-23T15:43:38.622Z,97602.69
2023-09-23T15:47:42.917Z,97605.94
2023-09-23T15:51:45.604Z,97608.44
2023-09-23T15:55:48.261Z,97612.75
2023-09-23T15:59:51.475Z,97609.03
2023-09-23T16:03:55.662Z,97609.69
2023-09-23T16:07:58.420Z,97611.03
2023-09-23T16:12:01.608Z,97608.06
2023-09-23T16:16:04.694Z,97599.69
2023-09-23T16:20:10.480Z,97600.09
2023-09-23T16:24:13.107Z,97600.16
2023-09-23T16:28:15.908Z,97604.81
2023-09-23T16:32:19.027Z,97603.06
2023-09-23T16:36:23.605Z,97606.75
2023-09-23T16:40:26.284Z,97612.16
2023-09-23T16:44:28.986Z,97610.53
2023-09-23T16:48:31.716Z,97627.72
2023-09-23T16:52:35.768Z,97642.16
2023-09-23T16:56:38.859Z,97635.41
2023-09-23T17:00:42.435Z,97629.63
2023-09-23T17:04:45.933Z,97634.16
2023-09-23T17:08:50.380Z,97660.53
2023-09-23T17:12:53.061Z,97667.91
2023-09-23T17:16:55.789Z,97669.06
2023-09-23T17:20:58.527Z,97677.34
2023-09-23T17:25:02.659Z,97695.31
2023-09-23T17:29:07.626Z,97707.84
2023-09-23T17:33:10.715Z,97702.72
2023-09-23T17:37:13.558Z,97702.22
2023-09-23T17:41:18.015Z,97708.00
2023-09-23T17:45:21.116Z,97713.75
2023-09-23T17:49:25.255Z,97732.16
2023-09-23T17:53:29.788Z,97743.09
2023-09-23T17:57:33.992Z,97765.97
2023-09-23T18:01:36.789Z,97763.97
2023-09-23T18:05:39.727Z,97772.66
2023-09-23T18:09:43.838Z,97777.78
2023-09-23T18:13:48.284Z,97782.47
2023-09-23T18:17:51.802Z,97791.88
2023-09-23T18:21:54.861Z,97804.84
2023-09-23T18:25:57.597Z,97810.25
2023-09-23T18:30:01.780Z,97816.47
2023-09-23T18:34:05.641Z,97826.53
2023-09-23T18:38:08.454Z,97831.34
2023-09-23T18:42:11.245Z,97835.72
2023-09-23T18:46:15.504Z,97840.91
2023-09-23T18:50:18.421Z,97843.91
2023-09-23T18:54:21.236Z,97847.31
2023-09-23T18:58:23.936Z,97843.59
2023-09-23T19:02:30.522Z,97837.34
2023-09-23T19:06:33.368Z,97851.13
2023-09-23T19:10:36.230Z,97852.94
2023-09-23T19:14:39.485Z,97856.31
2023-09-23T19:18:43.561Z,97865.28
2023-09-23T19:22:46.846Z,97865.50
2023-09-23T19:26:57.203Z,97873.06
2023-09-23T19:31:00.347Z,97880.97
2023-09-23T19:35:04.722Z,97880.09
2023-09-23T19:39:08.105Z,97888.88
2023-09-23T19:43:10.978Z,97895.00
2023-09-23T19:47:13.692Z,97900.88
2023-09-23T19:51:17.907Z,97910.31
2023-09-23T19:55:21.329Z,97917.19
2023-09-23T19:59:24.102Z,97914.94
2023-09-23T20:03:27.075Z,97921.41
2023-09-23T20:07:32.083Z,97929.13
2023-09-23T20:11:34.884Z,97926.44
2023-09-23T20:15:37.605Z,97934.75
2023-09-23T20:19:40.361Z,97930.41
2023-09-23T20:23:44.779Z,97930.19
2023-09-23T20:27:48.328Z,97934.38
2023-09-23T20:31:51.267Z,97935.22
2023-09-23T20:35:54.566Z,97928.97
2023-09-23T20:39:59.436Z,97933.16
2023-09-23T20:44:04.265Z,97940.88
2023-09-23T20:48:07.498Z,97948.16
2023-09-23T20:52:10.374Z,97965.44
2023-09-23T20:56:17.338Z,97963.81
2023-09-23T21:00:20.653Z,97968.81
2023-09-23T21:04:23.547Z,97965.47
2023-09-23T21:08:26.985Z,97971.91
2023-09-23T21:12:31.225Z,97970.88
2023-09-23T21:16:33.924Z,97982.91
2023-09-23T21:20:37.815Z,97994.75
2023-09-23T21:24:40.871Z,98000.38
2023-09-23T21:28:44.945Z,98008.69
2023-09-23T21:32:48.022Z,98017.41
2023-09-23T21:36:50.914Z,98013.19
2023-09-23T21:40:53.607Z,98004.03
2023-09-23T21:44:57.752Z,98002.34
2023-09-23T21:49:01.501Z,98007.94
2023-09-23T21:53:05.054Z,98009.16
2023-09-23T21:57:08.867Z,98006.84
2023-09-23T22:01:12.938Z,98010.38
2023-09-23T22:05:15.606Z,98005.16
2023-09-23T22:09:19.298Z,98005.38
2023-09-23T22:13:22.333Z,98001.41
2023-09-23T22:17:27.811Z,98009.91
2023-09-23T22:21:32.656Z,98010.09
2023-09-23T22:25:35.342Z,98012.81
2023-09-23T22:29:38.096Z,98000.34
2023-09-23T22:33:42.155Z,98013.00
2023-09-23T22:37:45.768Z,98014.66
2023-09-23T22:41:48.599Z,98017.28
2023-09-23T22:45:51.313Z,98021.81
2023-09-23T22:49:56.193Z,98020.72
2023-09-23T22:53:58.993Z,98024.47
2023-09-23T22:58:01.760Z,98021.47
2023-09-23T23:02:04.485Z,98028.69
2023-09-23T23:06:09.051Z,98021.81
2023-09-23T23:10:12.260Z,98022.19
2023-09-23T23:14:15.988Z,98024.88
2023-09-23T23:18:18.996Z,98029.81
2023-09-23T23:22:23.046Z,98023.13
2023-09-23T23:26:25.713Z,98016.63
2023-09-23T23:30:28.402Z,98030.28
2023-09-23T23:34:31.487Z,98033.34
2023-09-23T23:38:35.556Z,98037.28
2023-09-23T23:42:38.951Z,98037.84
2023-09-23T23:46:42.989Z,98031.81
2023-09-23T23:50:46.086Z,98033.69
2023-09-23T23:54:50.306Z,98032.13
2023-09-23T23:58:53.244Z,98035.22
